WetterOnline ( https://www.wetteronline.ch )

Wetter aktuell Lohr a. Main

Aktuelles Wetter: Neuhütten/Spessart (340m)

6-stündlich | Neueste Meldungen
Ortszeit Temperatur Wetter
Di, 19.11. 7:00 4.0° C bedeckt
Di, 19.11. 1:00 2.8° C leichter Regen
Mo, 18.11. 19:00 3.0° C bedeckt
Mo, 18.11. 13:00 4.0° C Sprühregen
Mo, 18.11. 7:00 4.3° C bedeckt
Mo, 18.11. 1:00 4.5° C bedeckt
So, 17.11. 19:00 5.0° C bewölkt
So, 17.11. 13:00 4.2° C bedeckt
Ortszeit Temperatur Wetter
Di, 19.11. 11:00 4.6° C Regen
Di, 19.11. 10:50 4.6° C bedeckt
Di, 19.11. 10:40 4.6° C bedeckt
Di, 19.11. 10:30 4.4° C Sprühregen
Di, 19.11. 10:20 4.4° C Sprühregen
Di, 19.11. 10:10 4.3° C Sprühregen
Di, 19.11. 10:00 4.3° C Sprühregen
Di, 19.11. 9:30 4.2° C Sprühregen
Di, 19.11. 9:00 3.9° C Sprühregen
Di, 19.11. 8:30 4.1° C bedeckt
Di, 19.11. 8:00 4.0° C Sprühregen
Ortszeit Relative Feuchte Sichtweite
Di, 19.11. 7:00 97% 20 km
Di, 19.11. 1:00 92% 7 km
Mo, 18.11. 19:00 79% 65 km
Mo, 18.11. 13:00 87% 7 km
Mo, 18.11. 7:00 92% 45 km
Mo, 18.11. 1:00 99% 2.4 km
So, 17.11. 19:00 96% 13 km
So, 17.11. 13:00 92% 17 km
Ortszeit Relative Feuchte Sichtweite
Di, 19.11. 11:00 93% 29 km
Di, 19.11. 10:50 93% -
Di, 19.11. 10:40 95% -
Di, 19.11. 10:30 96% 9 km
Di, 19.11. 10:20 96% -
Di, 19.11. 10:10 95% -
Di, 19.11. 10:00 97% 8 km
Di, 19.11. 9:30 96% 7 km
Di, 19.11. 9:00 98% 4.1 km
Di, 19.11. 8:30 97% 6 km
Di, 19.11. 8:00 97% 9 km
Ortszeit Niederschlagsmenge Niederschlagsart
Di, 19.11. 7:00 2 l/m2 in 12 Std. Schnee, Regen
Di, 19.11. 1:00 0.3 l/m2 in 6 Std. Regen
Mo, 18.11. 19:00 0.1 l/m2 in 12 Std. Regen
Mo, 18.11. 13:00 0.1 l/m2 in 6 Std. Regen
Mo, 18.11. 7:00 0.1 l/m2 in 12 Std. -
Mo, 18.11. 1:00 0.1 l/m2 in 6 Std. Sprühregen
So, 17.11. 19:00 0.1 l/m2 in 12 Std. -
So, 17.11. 13:00 0.1 l/m2 in 6 Std. Regen
Ortszeit Niederschlagsmenge Niederschlagsart
Di, 19.11. 11:00 0.1 l/m2 in 1 Std. Regen
Di, 19.11. 10:50 keine Meldung -
Di, 19.11. 10:40 keine Meldung -
Di, 19.11. 10:30 0.1 l/m2 in 1 Std. -
Di, 19.11. 10:20 keine Meldung -
Di, 19.11. 10:10 keine Meldung -
Di, 19.11. 10:00 0.1 l/m2 in 1 Std. Regen
Di, 19.11. 9:30 0.1 l/m2 in 1 Std. -
Di, 19.11. 9:00 0.1 l/m2 in 1 Std. Regen
Di, 19.11. 8:30 0.1 l/m2 in 1 Std. Schneeregen
Di, 19.11. 8:00 0.1 l/m2 in 1 Std. Regen
Ortszeit Stärke Spitze Richtung
km/h Bft. km/h Grad Sektor
Di, 19.11. 7:00 7 2 40 250° W
Di, 19.11. 1:00 15 3 39 240° SW
Mo, 18.11. 19:00 20 4 43 250° W
Mo, 18.11. 13:00 14 3 29 230° SW
Mo, 18.11. 7:00 9 2 26 250° W
Mo, 18.11. 1:00 7 2 18 280° W
So, 17.11. 19:00 4 1 14 50° NO
So, 17.11. 13:00 0 0 25 - -
Ortszeit Stärke Spitze Richtung
km/h Bft. km/h Grad Sektor
Di, 19.11. 11:00 2 1 6 300° NW
Di, 19.11. 10:50 2 1 - 300° NW
Di, 19.11. 10:40 2 1 - 340° N
Di, 19.11. 10:30 4 1 7 360° N
Di, 19.11. 10:20 4 1 - 360° N
Di, 19.11. 10:10 4 1 - 340° N
Di, 19.11. 10:00 2 1 6 280° W
Di, 19.11. 9:30 4 1 7 200° S
Di, 19.11. 9:00 4 1 7 250° W
Di, 19.11. 8:30 4 1 7 220° SW
Di, 19.11. 8:00 7 2 13 250° W
Ortszeit Untergrenze Bedeckung Gattung
total tief tief mittel hoch
Di, 19.11. 7:00 90 m 8/8 8/8 - - -
Di, 19.11. 1:00 300 m 7/8 7/8 - - -
Mo, 18.11. 19:00 510 m 8/8 8/8 - - -
Mo, 18.11. 13:00 360 m 8/8 8/8 - - -
Mo, 18.11. 7:00 210 m 8/8 8/8 - - -
Mo, 18.11. 1:00 180 m 8/8 8/8 - - -
So, 17.11. 19:00 420 m 7/8 7/8 - - -
So, 17.11. 13:00 510 m 8/8 8/8 - - -
Ortszeit Bedeckungsgrad in Achtel und Wolkenuntergrenze
Di, 19.11. 11:00 4(90m) 7(840m) 8(1080m)
Di, 19.11. 10:50 4(90m) 7(840m) 8(1080m)
Di, 19.11. 10:40 3(60m) 6(390m) 8(1110m)
Di, 19.11. 10:30 3(60m) 8(780m) 8(1170m)
Di, 19.11. 10:20 3(60m) 8(780m) 8(1170m)
Di, 19.11. 10:10 3(60m) 3(240m) 7(450m)
Di, 19.11. 10:00 3(60m) 8(420m) 8(990m)
Di, 19.11. 9:30 7(150m) 8(270m) 8(990m)
Di, 19.11. 9:00 7(120m)
Di, 19.11. 8:30 8(180m)
Di, 19.11. 8:00 7(120m) 8(240m)
Ortszeit Luftdruck NN (hPa) Tendenz (hPa in 3 Std.)
Di, 19.11. 7:00 1016 + 0,8
Di, 19.11. 1:00 1014 + 1,6
Mo, 18.11. 19:00 1012 + 1,3
Mo, 18.11. 13:00 1008 + 0,6
Mo, 18.11. 7:00 1006 + 1,6
Mo, 18.11. 1:00 1004 + 0,5
So, 17.11. 19:00 1003 - 1,0
So, 17.11. 13:00 1007 - 3,3
Ortszeit Luftdruck NN (hPa) Tendenz (hPa in 3 Std.)
Di, 19.11. 11:00 1018 + 1,1
Di, 19.11. 10:50 1018 keine Meldung
Di, 19.11. 10:40 1018 keine Meldung
Di, 19.11. 10:30 1018 + 1,3
Di, 19.11. 10:20 1018 keine Meldung
Di, 19.11. 10:10 1018 keine Meldung
Di, 19.11. 10:00 1018 + 1,4
Di, 19.11. 9:30 1018 + 1,5
Di, 19.11. 9:00 1017 + 1,8
Di, 19.11. 8:30 1017 + 1,6
Di, 19.11. 8:00 1017 + 1,4
Ortszeit Schneehöhe (cm)
Di, 19.11. 7:00 0
Di, 19.11. 1:00 0
Mo, 18.11. 19:00 0
Mo, 18.11. 13:00 0
Mo, 18.11. 7:00 0
Mo, 18.11. 1:00 0
So, 17.11. 19:00 0
So, 17.11. 13:00 0
Ortszeit Schneehöhe (cm)
Di, 19.11. 11:00 0
Di, 19.11. 10:50 0
Di, 19.11. 10:40 0
Di, 19.11. 10:30 0
Di, 19.11. 10:20 0
Di, 19.11. 10:10 0
Di, 19.11. 10:00 0
Di, 19.11. 9:30 0
Di, 19.11. 9:00 0
Di, 19.11. 8:30 0
Di, 19.11. 8:00 0
Link zu dieser Seite / Seite empfehlen

Das Wetter in ...